CXKAL SUTR-SUMO
Flight info
| Callsign | CXKAL |
|---|---|
| Flight time | 2h 12m |
| Altitude | 3500 |
| Route | SUCH |
| Aircraft | BT36/L-BDFGLORY/S |
Departure
| Time | 2026-05-06 13:06 |
|---|---|
| Airport | Treinta y Tres Airport (SUTR) |
Arrival
| Time | 2026-05-06 15:19 |
|---|---|
| Airport | Cerro Largo International Airport (SUMO) |
| Time | Latitude | Longitude | Altitude | Speed | Heading |
|---|---|---|---|---|---|
| 2026-05-06 12:59 | -33.19958 | -54.34802 | 187 ft | 0 kts | 48° |
| 2026-05-06 13:04 | -33.19958 | -54.34790 | 187 ft | 6 kts | 143° |
| 2026-05-06 13:04 | -33.19989 | -54.34761 | 187 ft | 4 kts | 111° |
| 2026-05-06 13:04 | -33.19990 | -54.34756 | 187 ft | 0 kts | 95° |
| 2026-05-06 13:05 | -33.19992 | -54.34734 | 187 ft | 8 kts | 95° |
| 2026-05-06 13:05 | -33.19980 | -54.34687 | 188 ft | 3 kts | 354° |
| 2026-05-06 13:05 | -33.19906 | -54.34691 | 200 ft | 40 kts | 358° |
| 2026-05-06 13:06 | -33.19421 | -54.34739 | 278 ft | 87 kts | 358° |
| 2026-05-06 13:06 | -33.19188 | -54.34774 | 385 ft | 92 kts | 356° |
| 2026-05-06 13:06 | -33.18516 | -54.35010 | 631 ft | 117 kts | 314° |
| 2026-05-06 13:06 | -33.18428 | -54.35982 | 989 ft | 130 kts | 255° |
| 2026-05-06 13:07 | -33.18967 | -54.36861 | 1316 ft | 135 kts | 215° |
| 2026-05-06 13:07 | -33.19824 | -54.37465 | 1483 ft | 152 kts | 214° |
| 2026-05-06 13:07 | -33.20790 | -54.38119 | 1605 ft | 162 kts | 210° |
| 2026-05-06 13:07 | -33.21721 | -54.38824 | 1708 ft | 161 kts | 215° |
| 2026-05-06 13:08 | -33.22737 | -54.39587 | 1496 ft | 176 kts | 214° |
| 2026-05-06 13:08 | -33.23772 | -54.40349 | 1494 ft | 173 kts | 213° |
| 2026-05-06 13:08 | -33.24795 | -54.41100 | 1484 ft | 171 kts | 214° |
| 2026-05-06 13:08 | -33.25774 | -54.41817 | 1494 ft | 160 kts | 213° |
| 2026-05-06 13:09 | -33.26701 | -54.42505 | 1483 ft | 152 kts | 214° |
| 2026-05-06 13:09 | -33.27579 | -54.43150 | 1485 ft | 146 kts | 214° |
| 2026-05-06 13:09 | -33.28428 | -54.43772 | 1486 ft | 140 kts | 214° |
| 2026-05-06 13:09 | -33.29239 | -54.44375 | 1485 ft | 136 kts | 214° |
| 2026-05-06 13:10 | -33.30032 | -54.44955 | 1487 ft | 130 kts | 213° |
| 2026-05-06 13:10 | -33.30781 | -54.45502 | 1491 ft | 125 kts | 213° |
| 2026-05-06 13:10 | -33.31511 | -54.46036 | 1482 ft | 121 kts | 214° |
| 2026-05-06 13:10 | -33.32218 | -54.46544 | 1494 ft | 119 kts | 213° |
| 2026-05-06 13:11 | -33.32916 | -54.47053 | 1493 ft | 117 kts | 214° |
| 2026-05-06 13:11 | -33.33607 | -54.47561 | 1492 ft | 117 kts | 214° |
| 2026-05-06 13:11 | -33.34314 | -54.48076 | 1487 ft | 120 kts | 214° |
| 2026-05-06 13:11 | -33.35023 | -54.48605 | 1497 ft | 121 kts | 214° |
| 2026-05-06 13:12 | -33.35757 | -54.49114 | 1497 ft | 124 kts | 203° |
| 2026-05-06 13:12 | -33.36578 | -54.49438 | 1502 ft | 124 kts | 200° |
| 2026-05-06 13:12 | -33.37388 | -54.49782 | 1502 ft | 123 kts | 200° |
| 2026-05-06 13:12 | -33.38198 | -54.50117 | 1503 ft | 124 kts | 200° |
| 2026-05-06 13:13 | -33.39013 | -54.50445 | 1500 ft | 123 kts | 200° |
| 2026-05-06 13:13 | -33.39831 | -54.50766 | 1498 ft | 125 kts | 200° |
| 2026-05-06 13:13 | -33.40684 | -54.51091 | 1507 ft | 131 kts | 199° |
| 2026-05-06 13:13 | -33.41555 | -54.51440 | 1503 ft | 135 kts | 200° |
| 2026-05-06 13:14 | -33.42459 | -54.51805 | 1499 ft | 140 kts | 200° |
| 2026-05-06 13:14 | -33.43388 | -54.52180 | 1498 ft | 141 kts | 200° |
| 2026-05-06 13:14 | -33.43713 | -54.52311 | 1517 ft | 140 kts | 200° |
| 2026-05-06 13:14 | -33.44157 | -54.52494 | 1475 ft | 142 kts | 200° |
| 2026-05-06 13:15 | -33.45082 | -54.52880 | 1469 ft | 139 kts | 197° |
| 2026-05-06 13:15 | -33.45980 | -54.52647 | 1455 ft | 138 kts | 137° |
| 2026-05-06 13:15 | -33.46392 | -54.51635 | 1462 ft | 135 kts | 109° |
| 2026-05-06 13:15 | -33.46720 | -54.50574 | 1461 ft | 136 kts | 110° |
| 2026-05-06 13:16 | -33.47042 | -54.49514 | 1460 ft | 134 kts | 110° |
| 2026-05-06 13:16 | -33.47358 | -54.48481 | 1463 ft | 134 kts | 110° |
| 2026-05-06 13:16 | -33.47676 | -54.47429 | 1463 ft | 136 kts | 110° |
| 2026-05-06 13:16 | -33.48000 | -54.46361 | 1464 ft | 137 kts | 110° |
| 2026-05-06 13:17 | -33.48326 | -54.45289 | 1465 ft | 137 kts | 110° |
| 2026-05-06 13:17 | -33.48652 | -54.44215 | 1463 ft | 137 kts | 110° |
| 2026-05-06 13:17 | -33.48951 | -54.43222 | 1464 ft | 137 kts | 110° |
| 2026-05-06 13:17 | -33.49408 | -54.42221 | 1463 ft | 138 kts | 131° |
| 2026-05-06 13:18 | -33.50088 | -54.41401 | 1465 ft | 138 kts | 136° |
| 2026-05-06 13:18 | -33.50769 | -54.40599 | 1461 ft | 136 kts | 136° |
| 2026-05-06 13:18 | -33.51435 | -54.39817 | 1459 ft | 133 kts | 136° |
| 2026-05-06 13:18 | -33.52095 | -54.39037 | 1460 ft | 134 kts | 136° |
| 2026-05-06 13:19 | -33.52766 | -54.38263 | 1457 ft | 133 kts | 137° |
| 2026-05-06 13:19 | -33.53491 | -54.37578 | 1456 ft | 133 kts | 150° |
| 2026-05-06 13:19 | -33.54303 | -54.37046 | 1455 ft | 133 kts | 152° |
| 2026-05-06 13:19 | -33.55112 | -54.36515 | 1456 ft | 132 kts | 152° |
| 2026-05-06 13:20 | -33.55903 | -54.35997 | 1451 ft | 130 kts | 152° |
| 2026-05-06 13:20 | -33.56699 | -54.35476 | 1451 ft | 131 kts | 152° |
| 2026-05-06 13:20 | -33.57549 | -54.35125 | 1454 ft | 130 kts | 167° |
| 2026-05-06 13:20 | -33.58425 | -54.34852 | 1453 ft | 130 kts | 166° |
| 2026-05-06 13:21 | -33.59296 | -54.34577 | 1452 ft | 129 kts | 166° |
| 2026-05-06 13:21 | -33.60018 | -54.33974 | 1452 ft | 129 kts | 130° |
| 2026-05-06 13:21 | -33.60574 | -54.33122 | 1452 ft | 129 kts | 128° |
| 2026-05-06 13:21 | -33.61116 | -54.32286 | 1451 ft | 128 kts | 128° |
| 2026-05-06 13:22 | -33.61659 | -54.31438 | 1453 ft | 128 kts | 128° |
| 2026-05-06 13:22 | -33.62207 | -54.30592 | 1455 ft | 129 kts | 128° |
| 2026-05-06 13:22 | -33.62762 | -54.29731 | 1456 ft | 131 kts | 128° |
| 2026-05-06 13:22 | -33.63314 | -54.28874 | 1456 ft | 129 kts | 128° |
| 2026-05-06 13:23 | -33.63866 | -54.28016 | 1457 ft | 130 kts | 128° |
| 2026-05-06 13:23 | -33.64421 | -54.27156 | 1459 ft | 130 kts | 128° |
| 2026-05-06 13:23 | -33.64979 | -54.26289 | 1460 ft | 132 kts | 128° |
| 2026-05-06 13:23 | -33.65530 | -54.25434 | 1456 ft | 130 kts | 128° |
| 2026-05-06 13:24 | -33.66082 | -54.24575 | 1460 ft | 131 kts | 128° |
| 2026-05-06 13:24 | -33.66644 | -54.23703 | 1462 ft | 133 kts | 128° |
| 2026-05-06 13:24 | -33.67206 | -54.22826 | 1458 ft | 131 kts | 128° |
| 2026-05-06 13:24 | -33.67430 | -54.22478 | 1458 ft | 131 kts | 128° |
| 2026-05-06 13:29 | -33.67632 | -54.22166 | 1461 ft | 130 kts | 129° |
| 2026-05-06 13:29 | -33.68372 | -54.21598 | 1460 ft | 129 kts | 158° |
| 2026-05-06 13:29 | -33.69199 | -54.21175 | 1460 ft | 128 kts | 163° |
| 2026-05-06 13:30 | -33.70018 | -54.20766 | 1459 ft | 129 kts | 143° |
| 2026-05-06 13:30 | -33.70736 | -54.20110 | 1461 ft | 130 kts | 144° |
| 2026-05-06 13:30 | -33.71463 | -54.19465 | 1461 ft | 129 kts | 144° |
| 2026-05-06 13:30 | -33.72145 | -54.18755 | 1459 ft | 131 kts | 128° |
| 2026-05-06 13:31 | -33.72506 | -54.18177 | 1460 ft | 130 kts | 127° |
| 2026-05-06 13:31 | -33.73043 | -54.17312 | 1459 ft | 128 kts | 127° |
| 2026-05-06 13:31 | -33.73755 | -54.16160 | 1463 ft | 131 kts | 127° |
| 2026-05-06 13:31 | -33.74296 | -54.15285 | 1461 ft | 130 kts | 127° |
| 2026-05-06 13:32 | -33.74834 | -54.14417 | 1460 ft | 129 kts | 127° |
| 2026-05-06 13:32 | -33.75353 | -54.13531 | 1458 ft | 131 kts | 117° |
| 2026-05-06 13:32 | -33.75672 | -54.12504 | 1461 ft | 132 kts | 110° |
| 2026-05-06 13:32 | -33.75983 | -54.11474 | 1461 ft | 130 kts | 110° |
| 2026-05-06 13:33 | -33.76186 | -54.10797 | 1461 ft | 130 kts | 110° |
| 2026-05-06 13:33 | -33.76496 | -54.09774 | 1461 ft | 130 kts | 110° |
| 2026-05-06 13:33 | -33.76801 | -54.08755 | 1463 ft | 129 kts | 110° |
| 2026-05-06 13:33 | -33.77110 | -54.07731 | 1462 ft | 131 kts | 110° |
| 2026-05-06 13:34 | -33.77421 | -54.06692 | 1466 ft | 133 kts | 110° |
| 2026-05-06 13:34 | -33.77737 | -54.05641 | 1466 ft | 134 kts | 110° |
| 2026-05-06 13:34 | -33.78049 | -54.04599 | 1460 ft | 131 kts | 110° |
| 2026-05-06 13:34 | -33.78357 | -54.03568 | 1465 ft | 132 kts | 110° |
| 2026-05-06 13:35 | -33.78670 | -54.02523 | 1460 ft | 133 kts | 110° |
| 2026-05-06 13:35 | -33.78975 | -54.01501 | 1463 ft | 131 kts | 110° |
| 2026-05-06 13:35 | -33.79289 | -54.00458 | 1462 ft | 131 kts | 110° |
| 2026-05-06 13:35 | -33.79597 | -53.99425 | 1461 ft | 131 kts | 110° |
| 2026-05-06 13:36 | -33.79901 | -53.98411 | 1460 ft | 131 kts | 110° |
| 2026-05-06 13:36 | -33.80226 | -53.97384 | 1453 ft | 130 kts | 120° |
| 2026-05-06 13:36 | -33.80812 | -53.96570 | 1456 ft | 128 kts | 133° |
| 2026-05-06 13:36 | -33.81412 | -53.95780 | 1455 ft | 129 kts | 133° |
| 2026-05-06 13:37 | -33.82031 | -53.95000 | 1456 ft | 129 kts | 141° |
| 2026-05-06 13:37 | -33.82757 | -53.94367 | 1453 ft | 128 kts | 145° |
| 2026-05-06 13:37 | -33.83474 | -53.93748 | 1455 ft | 126 kts | 145° |
| 2026-05-06 13:37 | -33.84196 | -53.93124 | 1451 ft | 127 kts | 144° |
| 2026-05-06 13:38 | -33.84882 | -53.92459 | 1450 ft | 128 kts | 130° |
| 2026-05-06 13:38 | -33.85404 | -53.91608 | 1453 ft | 129 kts | 127° |
| 2026-05-06 13:38 | -33.85934 | -53.90752 | 1450 ft | 127 kts | 127° |
| 2026-05-06 13:38 | -33.86273 | -53.90202 | 1450 ft | 126 kts | 127° |
| 2026-05-06 13:41 | -33.85198 | -53.91971 | 1450 ft | 2825 kts | 222° |
| 2026-05-06 13:41 | -33.82662 | -53.94219 | 1448 ft | 126 kts | 128° |
| 2026-05-06 13:41 | -33.83212 | -53.93406 | 1453 ft | 126 kts | 130° |
| 2026-05-06 13:41 | -33.83786 | -53.92599 | 1450 ft | 127 kts | 131° |
| 2026-05-06 13:42 | -33.84356 | -53.91793 | 1449 ft | 126 kts | 131° |
| 2026-05-06 13:42 | -33.84925 | -53.90989 | 1449 ft | 126 kts | 131° |
| 2026-05-06 13:42 | -33.85492 | -53.90193 | 1448 ft | 125 kts | 131° |
| 2026-05-06 13:42 | -33.86063 | -53.89386 | 1456 ft | 128 kts | 131° |
| 2026-05-06 13:43 | -33.86640 | -53.88570 | 1452 ft | 127 kts | 131° |
| 2026-05-06 13:43 | -33.87205 | -53.87773 | 1456 ft | 127 kts | 131° |
| 2026-05-06 13:43 | -33.87784 | -53.86956 | 1459 ft | 129 kts | 131° |
| 2026-05-06 13:43 | -33.88278 | -53.86049 | 1455 ft | 130 kts | 102° |
| 2026-05-06 13:44 | -33.88389 | -53.84983 | 1460 ft | 131 kts | 98° |
| 2026-05-06 13:44 | -33.88517 | -53.83904 | 1457 ft | 129 kts | 98° |
| 2026-05-06 13:44 | -33.88641 | -53.82832 | 1463 ft | 130 kts | 98° |
| 2026-05-06 13:44 | -33.88767 | -53.81747 | 1464 ft | 131 kts | 98° |
| 2026-05-06 13:45 | -33.88892 | -53.80654 | 1467 ft | 132 kts | 98° |
| 2026-05-06 13:45 | -33.89143 | -53.78459 | 1467 ft | 132 kts | 98° |
| 2026-05-06 13:45 | -33.89265 | -53.77385 | 1464 ft | 130 kts | 97° |
| 2026-05-06 13:46 | -33.89392 | -53.76305 | 1459 ft | 129 kts | 98° |
| 2026-05-06 13:46 | -33.89517 | -53.75241 | 1456 ft | 128 kts | 99° |
| 2026-05-06 13:46 | -33.89638 | -53.74189 | 1478 ft | 124 kts | 97° |
| 2026-05-06 13:46 | -33.89777 | -53.73190 | 1535 ft | 119 kts | 97° |
| 2026-05-06 13:47 | -33.89954 | -53.72217 | 1533 ft | 119 kts | 97° |
| 2026-05-06 13:47 | -33.90129 | -53.71241 | 1537 ft | 120 kts | 98° |
| 2026-05-06 13:47 | -33.90302 | -53.70260 | 1543 ft | 120 kts | 98° |
| 2026-05-06 13:47 | -33.90472 | -53.69285 | 1542 ft | 118 kts | 98° |
| 2026-05-06 13:48 | -33.90656 | -53.68323 | 1549 ft | 119 kts | 99° |
| 2026-05-06 13:48 | -33.90827 | -53.67345 | 1551 ft | 120 kts | 98° |
| 2026-05-06 13:48 | -33.91007 | -53.66354 | 1554 ft | 122 kts | 98° |
| 2026-05-06 13:48 | -33.91190 | -53.65350 | 1556 ft | 122 kts | 97° |
| 2026-05-06 13:49 | -33.91370 | -53.64360 | 1562 ft | 124 kts | 98° |
| 2026-05-06 13:49 | -33.91555 | -53.63330 | 1558 ft | 125 kts | 97° |
| 2026-05-06 13:49 | -33.91753 | -53.62309 | 1558 ft | 125 kts | 98° |
| 2026-05-06 13:49 | -33.91937 | -53.61292 | 1554 ft | 123 kts | 98° |
| 2026-05-06 13:50 | -33.92117 | -53.60276 | 1558 ft | 126 kts | 97° |
| 2026-05-06 13:50 | -33.92312 | -53.59243 | 1554 ft | 126 kts | 97° |
| 2026-05-06 13:50 | -33.92506 | -53.58210 | 1555 ft | 127 kts | 98° |
| 2026-05-06 13:50 | -33.92686 | -53.57171 | 1555 ft | 127 kts | 97° |
| 2026-05-06 13:51 | -33.92876 | -53.56139 | 1558 ft | 128 kts | 99° |
| 2026-05-06 13:51 | -33.93060 | -53.55079 | 1557 ft | 130 kts | 97° |
| 2026-05-06 13:51 | -33.93139 | -53.54021 | 1550 ft | 124 kts | 67° |
| 2026-05-06 13:51 | -33.92519 | -53.53444 | 1554 ft | 116 kts | 7° |
| 2026-05-06 13:52 | -33.91726 | -53.53189 | 1558 ft | 119 kts | 16° |
| 2026-05-06 13:52 | -33.90940 | -53.52875 | 1555 ft | 119 kts | 15° |
| 2026-05-06 13:52 | -33.90157 | -53.52564 | 1557 ft | 118 kts | 16° |
| 2026-05-06 13:52 | -33.89370 | -53.52259 | 1555 ft | 119 kts | 16° |
| 2026-05-06 13:53 | -33.88585 | -53.51950 | 1549 ft | 118 kts | 16° |
| 2026-05-06 13:53 | -33.87828 | -53.51642 | 1544 ft | 114 kts | 15° |
| 2026-05-06 13:53 | -33.87078 | -53.51351 | 1547 ft | 113 kts | 14° |
| 2026-05-06 13:53 | -33.86313 | -53.51107 | 1546 ft | 114 kts | 12° |
| 2026-05-06 13:54 | -33.85538 | -53.50864 | 1543 ft | 116 kts | 13° |
| 2026-05-06 13:54 | -33.84754 | -53.50627 | 1548 ft | 116 kts | 12° |
| 2026-05-06 13:54 | -33.83967 | -53.50392 | 1557 ft | 117 kts | 13° |
| 2026-05-06 13:54 | -33.83171 | -53.50146 | 1551 ft | 118 kts | 13° |
| 2026-05-06 13:55 | -33.82371 | -53.49896 | 1557 ft | 119 kts | 12° |
| 2026-05-06 13:55 | -33.81561 | -53.49649 | 1557 ft | 121 kts | 12° |
| 2026-05-06 13:55 | -33.80751 | -53.49401 | 1554 ft | 119 kts | 13° |
| 2026-05-06 13:55 | -33.79949 | -53.49149 | 1554 ft | 119 kts | 13° |
| 2026-05-06 13:56 | -33.79147 | -53.48908 | 1556 ft | 118 kts | 12° |
| 2026-05-06 13:56 | -33.78352 | -53.48664 | 1553 ft | 118 kts | 12° |
| 2026-05-06 13:56 | -33.77555 | -53.48414 | 1547 ft | 118 kts | 12° |
| 2026-05-06 13:56 | -33.76764 | -53.48168 | 1545 ft | 116 kts | 12° |
| 2026-05-06 13:57 | -33.75984 | -53.47928 | 1542 ft | 115 kts | 13° |
| 2026-05-06 13:57 | -33.75204 | -53.47687 | 1546 ft | 116 kts | 13° |
| 2026-05-06 13:57 | -33.74409 | -53.47443 | 1543 ft | 119 kts | 13° |
| 2026-05-06 13:57 | -33.73611 | -53.47196 | 1541 ft | 118 kts | 12° |
| 2026-05-06 13:58 | -33.72819 | -53.46950 | 1543 ft | 117 kts | 12° |
| 2026-05-06 13:58 | -33.72019 | -53.46704 | 1555 ft | 120 kts | 12° |
| 2026-05-06 13:58 | -33.71973 | -53.46690 | 1554 ft | 120 kts | 12° |
| 2026-05-06 13:59 | -33.71428 | -53.46517 | 1550 ft | 121 kts | 13° |
| 2026-05-06 14:00 | -33.70619 | -53.46258 | 1548 ft | 120 kts | 13° |
| 2026-05-06 14:00 | -33.69904 | -53.45827 | 1497 ft | 120 kts | 64° |
| 2026-05-06 14:00 | -33.70068 | -53.44862 | 1305 ft | 118 kts | 118° |
| 2026-05-06 14:00 | -33.70730 | -53.44352 | 1060 ft | 115 kts | 178° |
| 2026-05-06 14:01 | -33.71297 | -53.44808 | 783 ft | 101 kts | 263° |
| 2026-05-06 14:01 | -33.71215 | -53.45571 | 427 ft | 84 kts | 285° |
| 2026-05-06 14:01 | -33.71141 | -53.46245 | 191 ft | 81 kts | 278° |
| 2026-05-06 14:01 | -33.71102 | -53.46884 | 77 ft | 66 kts | 276° |
| 2026-05-06 14:02 | -33.71092 | -53.47137 | 86 ft | 6 kts | 183° |
| 2026-05-06 14:02 | -33.71108 | -53.47089 | 84 ft | 7 kts | 94° |
| 2026-05-06 14:02 | -33.71111 | -53.47030 | 84 ft | 9 kts | 94° |
| 2026-05-06 14:02 | -33.71119 | -53.46938 | 75 ft | 13 kts | 97° |
| 2026-05-06 14:03 | -33.71134 | -53.46839 | 74 ft | 11 kts | 102° |
| 2026-05-06 14:03 | -33.71136 | -53.46792 | 74 ft | 0 kts | 48° |
| 2026-05-06 14:03 | -33.71132 | -53.46786 | 64 ft | 0 kts | 45° |
| 2026-05-06 14:18 | -33.71131 | -53.46786 | 74 ft | 2 kts | 45° |
| 2026-05-06 14:18 | -33.71097 | -53.46739 | 74 ft | 5 kts | 349° |
| 2026-05-06 14:18 | -33.71090 | -53.46833 | 72 ft | 22 kts | 272° |
| 2026-05-06 14:18 | -33.71077 | -53.47036 | 80 ft | 26 kts | 274° |
| 2026-05-06 14:19 | -33.71063 | -53.47217 | 86 ft | 19 kts | 274° |
| 2026-05-06 14:19 | -33.71075 | -53.47299 | 89 ft | 5 kts | 117° |
| 2026-05-06 14:19 | -33.71076 | -53.47293 | 91 ft | 0 kts | 93° |
| 2026-05-06 14:20 | -33.71076 | -53.47286 | 90 ft | 13 kts | 93° |
| 2026-05-06 14:20 | -33.71101 | -53.46846 | 101 ft | 83 kts | 90° |
| 2026-05-06 14:21 | -33.70872 | -53.46260 | 371 ft | 92 kts | 15° |
| 2026-05-06 14:21 | -33.70267 | -53.46435 | 742 ft | 100 kts | 316° |
| 2026-05-06 14:21 | -33.69757 | -53.47089 | 1085 ft | 112 kts | 317° |
| 2026-05-06 14:21 | -33.69202 | -53.47790 | 1381 ft | 126 kts | 316° |
| 2026-05-06 14:22 | -33.68550 | -53.48585 | 1545 ft | 142 kts | 316° |
| 2026-05-06 14:22 | -33.67853 | -53.49416 | 1554 ft | 139 kts | 316° |
| 2026-05-06 14:22 | -33.67180 | -53.50226 | 1553 ft | 136 kts | 316° |
| 2026-05-06 14:22 | -33.66520 | -53.51015 | 1542 ft | 131 kts | 319° |
| 2026-05-06 14:23 | -33.65714 | -53.51450 | 1535 ft | 126 kts | 344° |
| 2026-05-06 14:23 | -33.64869 | -53.51758 | 1537 ft | 127 kts | 343° |
| 2026-05-06 14:23 | -33.64028 | -53.52065 | 1532 ft | 125 kts | 343° |
| 2026-05-06 14:23 | -33.63201 | -53.52369 | 1532 ft | 123 kts | 343° |
| 2026-05-06 14:24 | -33.62380 | -53.52667 | 1531 ft | 123 kts | 343° |
| 2026-05-06 14:24 | -33.61564 | -53.52962 | 1538 ft | 122 kts | 343° |
| 2026-05-06 14:24 | -33.60738 | -53.53261 | 1540 ft | 126 kts | 343° |
| 2026-05-06 14:24 | -33.59900 | -53.53563 | 1544 ft | 127 kts | 343° |
| 2026-05-06 14:25 | -33.59048 | -53.53871 | 1547 ft | 128 kts | 343° |
| 2026-05-06 14:25 | -33.58192 | -53.54182 | 1553 ft | 129 kts | 344° |
| 2026-05-06 14:25 | -33.57320 | -53.54500 | 1550 ft | 131 kts | 343° |
| 2026-05-06 14:25 | -33.56447 | -53.54809 | 1549 ft | 130 kts | 343° |
| 2026-05-06 14:26 | -33.55585 | -53.55115 | 1544 ft | 128 kts | 343° |
| 2026-05-06 14:26 | -33.54749 | -53.55410 | 1546 ft | 127 kts | 344° |
| 2026-05-06 14:26 | -33.53901 | -53.55704 | 1541 ft | 126 kts | 346° |
| 2026-05-06 14:26 | -33.53042 | -53.55900 | 1540 ft | 125 kts | 349° |
| 2026-05-06 14:27 | -33.52187 | -53.56083 | 1540 ft | 124 kts | 349° |
| 2026-05-06 14:27 | -33.51324 | -53.56275 | 1543 ft | 127 kts | 350° |
| 2026-05-06 14:27 | -33.50456 | -53.56472 | 1541 ft | 126 kts | 350° |
| 2026-05-06 14:27 | -33.49603 | -53.56668 | 1538 ft | 124 kts | 349° |
| 2026-05-06 14:28 | -33.48762 | -53.56862 | 1537 ft | 122 kts | 349° |
| 2026-05-06 14:28 | -33.47929 | -53.57056 | 1536 ft | 122 kts | 349° |
| 2026-05-06 14:28 | -33.47095 | -53.57244 | 1533 ft | 121 kts | 349° |
| 2026-05-06 14:28 | -33.46276 | -53.57426 | 1535 ft | 122 kts | 349° |
| 2026-05-06 14:29 | -33.45427 | -53.57603 | 1538 ft | 125 kts | 350° |
| 2026-05-06 14:29 | -33.44564 | -53.57792 | 1542 ft | 127 kts | 349° |
| 2026-05-06 14:29 | -33.43688 | -53.57985 | 1546 ft | 128 kts | 349° |
| 2026-05-06 14:29 | -33.42816 | -53.58170 | 1547 ft | 126 kts | 349° |
| 2026-05-06 14:30 | -33.41963 | -53.58360 | 1541 ft | 123 kts | 349° |
| 2026-05-06 14:30 | -33.41124 | -53.58549 | 1538 ft | 122 kts | 349° |
| 2026-05-06 14:30 | -33.40294 | -53.58726 | 1536 ft | 122 kts | 349° |
| 2026-05-06 14:30 | -33.39456 | -53.58908 | 1537 ft | 123 kts | 349° |
| 2026-05-06 14:31 | -33.38607 | -53.59093 | 1544 ft | 125 kts | 349° |
| 2026-05-06 14:31 | -33.37739 | -53.59283 | 1548 ft | 128 kts | 349° |
| 2026-05-06 14:31 | -33.36861 | -53.59470 | 1544 ft | 128 kts | 349° |
| 2026-05-06 14:31 | -33.35982 | -53.59657 | 1543 ft | 129 kts | 349° |
| 2026-05-06 14:32 | -33.35097 | -53.59850 | 1543 ft | 129 kts | 349° |
| 2026-05-06 14:32 | -33.34221 | -53.60049 | 1544 ft | 129 kts | 349° |
| 2026-05-06 14:32 | -33.33343 | -53.60251 | 1542 ft | 128 kts | 349° |
| 2026-05-06 14:32 | -33.32475 | -53.60447 | 1537 ft | 126 kts | 349° |
| 2026-05-06 14:33 | -33.31613 | -53.60648 | 1540 ft | 127 kts | 351° |
| 2026-05-06 14:33 | -33.30726 | -53.60620 | 1536 ft | 127 kts | 4° |
| 2026-05-06 14:33 | -33.29843 | -53.60536 | 1537 ft | 127 kts | 4° |
| 2026-05-06 14:33 | -33.28977 | -53.60449 | 1535 ft | 125 kts | 4° |
| 2026-05-06 14:34 | -33.28107 | -53.60348 | 1531 ft | 126 kts | 5° |
| 2026-05-06 14:34 | -33.27225 | -53.60251 | 1533 ft | 128 kts | 4° |
| 2026-05-06 14:34 | -33.26335 | -53.60151 | 1535 ft | 128 kts | 5° |
| 2026-05-06 14:34 | -33.25447 | -53.60057 | 1533 ft | 126 kts | 4° |
| 2026-05-06 14:35 | -33.24582 | -53.59966 | 1533 ft | 124 kts | 4° |
| 2026-05-06 14:35 | -33.23727 | -53.59876 | 1532 ft | 124 kts | 4° |
| 2026-05-06 14:35 | -33.22859 | -53.59775 | 1534 ft | 126 kts | 5° |
| 2026-05-06 14:35 | -33.21986 | -53.59674 | 1530 ft | 125 kts | 4° |
| 2026-05-06 14:36 | -33.21121 | -53.59574 | 1534 ft | 125 kts | 5° |
| 2026-05-06 14:36 | -33.20267 | -53.59478 | 1529 ft | 124 kts | 4° |
| 2026-05-06 14:36 | -33.19408 | -53.59383 | 1533 ft | 124 kts | 4° |
| 2026-05-06 14:36 | -33.18543 | -53.59275 | 1529 ft | 125 kts | 5° |
| 2026-05-06 14:37 | -33.17684 | -53.59151 | 1526 ft | 123 kts | 13° |
| 2026-05-06 14:37 | -33.16915 | -53.58682 | 1531 ft | 124 kts | 28° |
| 2026-05-06 14:37 | -33.16177 | -53.58159 | 1528 ft | 123 kts | 28° |
| 2026-05-06 14:37 | -33.15445 | -53.57647 | 1526 ft | 123 kts | 28° |
| 2026-05-06 14:38 | -33.14711 | -53.57116 | 1530 ft | 124 kts | 28° |
| 2026-05-06 14:38 | -33.13979 | -53.56577 | 1530 ft | 123 kts | 28° |
| 2026-05-06 14:38 | -33.13243 | -53.56033 | 1537 ft | 126 kts | 28° |
| 2026-05-06 14:38 | -33.12488 | -53.55481 | 1538 ft | 129 kts | 28° |
| 2026-05-06 14:39 | -33.11722 | -53.54919 | 1537 ft | 127 kts | 28° |
| 2026-05-06 14:39 | -33.10981 | -53.54360 | 1540 ft | 127 kts | 28° |
| 2026-05-06 14:39 | -33.10228 | -53.53788 | 1540 ft | 129 kts | 28° |
| 2026-05-06 14:39 | -33.09469 | -53.53222 | 1538 ft | 128 kts | 28° |
| 2026-05-06 14:40 | -33.08711 | -53.52664 | 1543 ft | 128 kts | 28° |
| 2026-05-06 14:40 | -33.07949 | -53.52098 | 1544 ft | 129 kts | 28° |
| 2026-05-06 14:40 | -33.07193 | -53.51494 | 1537 ft | 132 kts | 33° |
| 2026-05-06 14:40 | -33.06470 | -53.50819 | 1538 ft | 132 kts | 34° |
| 2026-05-06 14:41 | -33.05742 | -53.50155 | 1540 ft | 132 kts | 33° |
| 2026-05-06 14:41 | -33.05016 | -53.49477 | 1538 ft | 132 kts | 35° |
| 2026-05-06 14:41 | -33.04304 | -53.48812 | 1538 ft | 131 kts | 35° |
| 2026-05-06 14:41 | -33.03573 | -53.48145 | 1537 ft | 133 kts | 34° |
| 2026-05-06 14:42 | -33.02845 | -53.47464 | 1539 ft | 133 kts | 33° |
| 2026-05-06 14:42 | -33.02126 | -53.46767 | 1543 ft | 133 kts | 35° |
| 2026-05-06 14:42 | -33.01393 | -53.46085 | 1537 ft | 134 kts | 34° |
| 2026-05-06 14:42 | -33.00660 | -53.45413 | 1540 ft | 132 kts | 33° |
| 2026-05-06 14:43 | -32.99941 | -53.44722 | 1543 ft | 133 kts | 34° |
| 2026-05-06 14:43 | -32.99210 | -53.44027 | 1544 ft | 136 kts | 34° |
| 2026-05-06 14:43 | -32.98474 | -53.43344 | 1544 ft | 136 kts | 34° |
| 2026-05-06 14:43 | -32.97732 | -53.42653 | 1543 ft | 135 kts | 34° |
| 2026-05-06 14:44 | -32.96998 | -53.41970 | 1546 ft | 134 kts | 34° |
| 2026-05-06 14:44 | -32.96259 | -53.41289 | 1539 ft | 134 kts | 33° |
| 2026-05-06 14:44 | -32.95524 | -53.40602 | 1535 ft | 134 kts | 34° |
| 2026-05-06 14:45 | -32.94075 | -53.39251 | 1535 ft | 131 kts | 33° |
| 2026-05-06 14:45 | -32.93360 | -53.38571 | 1529 ft | 130 kts | 34° |
| 2026-05-06 14:45 | -32.92650 | -53.37896 | 1529 ft | 133 kts | 34° |
| 2026-05-06 14:45 | -32.91920 | -53.37228 | 1536 ft | 134 kts | 34° |
| 2026-05-06 14:46 | -32.91173 | -53.36537 | 1551 ft | 139 kts | 34° |
| 2026-05-06 14:46 | -32.90403 | -53.35826 | 1535 ft | 138 kts | 34° |
| 2026-05-06 14:46 | -32.89652 | -53.35136 | 1531 ft | 135 kts | 33° |
| 2026-05-06 14:46 | -32.88923 | -53.34457 | 1533 ft | 132 kts | 34° |
| 2026-05-06 14:47 | -32.88201 | -53.33773 | 1536 ft | 134 kts | 34° |
| 2026-05-06 14:47 | -32.87472 | -53.33078 | 1538 ft | 134 kts | 33° |
| 2026-05-06 14:47 | -32.86747 | -53.32382 | 1533 ft | 134 kts | 34° |
| 2026-05-06 14:47 | -32.86029 | -53.31690 | 1528 ft | 132 kts | 33° |
| 2026-05-06 14:48 | -32.85331 | -53.31003 | 1529 ft | 131 kts | 35° |
| 2026-05-06 14:48 | -32.84614 | -53.30324 | 1533 ft | 132 kts | 33° |
| 2026-05-06 14:48 | -32.83888 | -53.29632 | 1539 ft | 135 kts | 34° |
| 2026-05-06 14:48 | -32.83144 | -53.28931 | 1539 ft | 137 kts | 34° |
| 2026-05-06 14:49 | -32.82404 | -53.28222 | 1541 ft | 136 kts | 34° |
| 2026-05-06 14:49 | -32.81682 | -53.27522 | 1540 ft | 135 kts | 35° |
| 2026-05-06 14:49 | -32.80945 | -53.26825 | 1539 ft | 136 kts | 35° |
| 2026-05-06 14:49 | -32.80198 | -53.26145 | 1536 ft | 135 kts | 34° |
| 2026-05-06 14:50 | -32.79455 | -53.25472 | 1538 ft | 133 kts | 34° |
| 2026-05-06 14:50 | -32.78730 | -53.24798 | 1538 ft | 133 kts | 33° |
| 2026-05-06 14:50 | -32.78001 | -53.24109 | 1536 ft | 134 kts | 34° |
| 2026-05-06 14:50 | -32.77263 | -53.23427 | 1534 ft | 134 kts | 34° |
| 2026-05-06 14:51 | -32.76545 | -53.22745 | 1533 ft | 133 kts | 33° |
| 2026-05-06 14:51 | -32.75820 | -53.22058 | 1535 ft | 133 kts | 35° |
| 2026-05-06 14:51 | -32.75085 | -53.21382 | 1534 ft | 134 kts | 33° |
| 2026-05-06 14:51 | -32.74346 | -53.20692 | 1539 ft | 135 kts | 33° |
| 2026-05-06 14:52 | -32.73598 | -53.20008 | 1540 ft | 135 kts | 34° |
| 2026-05-06 14:52 | -32.72862 | -53.19338 | 1543 ft | 135 kts | 33° |
| 2026-05-06 14:52 | -32.72123 | -53.18642 | 1539 ft | 136 kts | 34° |
| 2026-05-06 14:52 | -32.71381 | -53.17947 | 1539 ft | 136 kts | 34° |
| 2026-05-06 14:53 | -32.70622 | -53.17287 | 1538 ft | 134 kts | 21° |
| 2026-05-06 14:53 | -32.69757 | -53.17421 | 1536 ft | 132 kts | 324° |
| 2026-05-06 14:53 | -32.69084 | -53.18172 | 1538 ft | 132 kts | 319° |
| 2026-05-06 14:53 | -32.68414 | -53.18926 | 1543 ft | 133 kts | 319° |
| 2026-05-06 14:54 | -32.67752 | -53.19683 | 1548 ft | 137 kts | 319° |
| 2026-05-06 14:54 | -32.67107 | -53.20526 | 1538 ft | 137 kts | 313° |
| 2026-05-06 14:54 | -32.66508 | -53.21387 | 1539 ft | 134 kts | 312° |
| 2026-05-06 14:54 | -32.65919 | -53.22243 | 1534 ft | 133 kts | 312° |
| 2026-05-06 14:55 | -32.65321 | -53.23084 | 1532 ft | 133 kts | 313° |
| 2026-05-06 14:55 | -32.64712 | -53.23955 | 1536 ft | 138 kts | 313° |
| 2026-05-06 14:55 | -32.64099 | -53.24827 | 1542 ft | 141 kts | 314° |
| 2026-05-06 14:55 | -32.63462 | -53.25754 | 1531 ft | 147 kts | 313° |
| 2026-05-06 14:56 | -32.62828 | -53.26691 | 1541 ft | 145 kts | 313° |
| 2026-05-06 14:56 | -32.62193 | -53.27623 | 1535 ft | 145 kts | 313° |
| 2026-05-06 14:56 | -32.61675 | -53.28652 | 1532 ft | 146 kts | 297° |
| 2026-05-06 14:56 | -32.61296 | -53.29733 | 1539 ft | 143 kts | 297° |
| 2026-05-06 14:57 | -32.60916 | -53.30817 | 1537 ft | 141 kts | 298° |
| 2026-05-06 14:57 | -32.60557 | -53.31896 | 1531 ft | 139 kts | 297° |
| 2026-05-06 14:57 | -32.60203 | -53.32961 | 1531 ft | 138 kts | 296° |
| 2026-05-06 14:57 | -32.59853 | -53.34009 | 1533 ft | 136 kts | 296° |
| 2026-05-06 14:58 | -32.59491 | -53.35067 | 1531 ft | 139 kts | 297° |
| 2026-05-06 14:58 | -32.59114 | -53.36134 | 1535 ft | 141 kts | 297° |
| 2026-05-06 14:58 | -32.58737 | -53.37222 | 1546 ft | 145 kts | 298° |
| 2026-05-06 14:58 | -32.58418 | -53.38350 | 1535 ft | 148 kts | 282° |
| 2026-05-06 14:59 | -32.58372 | -53.39565 | 1536 ft | 146 kts | 276° |
| 2026-05-06 14:59 | -32.58337 | -53.40763 | 1528 ft | 143 kts | 277° |
| 2026-05-06 14:59 | -32.58302 | -53.41952 | 1541 ft | 147 kts | 277° |
| 2026-05-06 14:59 | -32.58287 | -53.43171 | 1527 ft | 148 kts | 276° |
| 2026-05-06 15:00 | -32.58277 | -53.44382 | 1540 ft | 148 kts | 276° |
| 2026-05-06 15:00 | -32.58233 | -53.45589 | 1528 ft | 147 kts | 282° |
| 2026-05-06 15:00 | -32.57916 | -53.46698 | 1523 ft | 140 kts | 298° |
| 2026-05-06 15:00 | -32.57547 | -53.47762 | 1532 ft | 141 kts | 296° |
| 2026-05-06 15:01 | -32.57305 | -53.48479 | 1538 ft | 141 kts | 296° |
| 2026-05-06 15:01 | -32.56924 | -53.49565 | 1537 ft | 143 kts | 297° |
| 2026-05-06 15:01 | -32.56552 | -53.50661 | 1535 ft | 143 kts | 297° |
| 2026-05-06 15:01 | -32.56181 | -53.51742 | 1535 ft | 141 kts | 297° |
| 2026-05-06 15:02 | -32.55807 | -53.52830 | 1535 ft | 143 kts | 297° |
| 2026-05-06 15:02 | -32.55439 | -53.53922 | 1524 ft | 140 kts | 297° |
| 2026-05-06 15:02 | -32.55083 | -53.54966 | 1518 ft | 137 kts | 297° |
| 2026-05-06 15:02 | -32.54725 | -53.56007 | 1524 ft | 135 kts | 297° |
| 2026-05-06 15:03 | -32.54369 | -53.57041 | 1537 ft | 135 kts | 296° |
| 2026-05-06 15:03 | -32.54005 | -53.58080 | 1530 ft | 137 kts | 297° |
| 2026-05-06 15:03 | -32.53639 | -53.59124 | 1529 ft | 137 kts | 297° |
| 2026-05-06 15:03 | -32.53268 | -53.60151 | 1527 ft | 138 kts | 297° |
| 2026-05-06 15:04 | -32.52881 | -53.61200 | 1531 ft | 139 kts | 297° |
| 2026-05-06 15:04 | -32.52492 | -53.62249 | 1537 ft | 139 kts | 297° |
| 2026-05-06 15:04 | -32.52115 | -53.63318 | 1537 ft | 142 kts | 297° |
| 2026-05-06 15:04 | -32.51746 | -53.64382 | 1529 ft | 137 kts | 296° |
| 2026-05-06 15:05 | -32.51369 | -53.65436 | 1515 ft | 138 kts | 296° |
| 2026-05-06 15:05 | -32.50994 | -53.66453 | 1529 ft | 133 kts | 297° |
| 2026-05-06 15:05 | -32.50632 | -53.67459 | 1533 ft | 136 kts | 297° |
| 2026-05-06 15:05 | -32.50270 | -53.68490 | 1527 ft | 136 kts | 297° |
| 2026-05-06 15:06 | -32.49894 | -53.69539 | 1539 ft | 141 kts | 297° |
| 2026-05-06 15:06 | -32.49489 | -53.70619 | 1532 ft | 144 kts | 297° |
| 2026-05-06 15:06 | -32.49080 | -53.71689 | 1527 ft | 141 kts | 297° |
| 2026-05-06 15:06 | -32.48686 | -53.72739 | 1529 ft | 141 kts | 297° |
| 2026-05-06 15:07 | -32.48301 | -53.73810 | 1532 ft | 141 kts | 297° |
| 2026-05-06 15:07 | -32.47920 | -53.74882 | 1521 ft | 140 kts | 297° |
| 2026-05-06 15:07 | -32.47544 | -53.75948 | 1528 ft | 141 kts | 296° |
| 2026-05-06 15:07 | -32.47148 | -53.77029 | 1535 ft | 145 kts | 297° |
| 2026-05-06 15:08 | -32.46728 | -53.78125 | 1517 ft | 146 kts | 297° |
| 2026-05-06 15:08 | -32.46332 | -53.79181 | 1517 ft | 138 kts | 297° |
| 2026-05-06 15:08 | -32.45967 | -53.80209 | 1514 ft | 134 kts | 297° |
| 2026-05-06 15:08 | -32.45571 | -53.81201 | 1536 ft | 132 kts | 306° |
| 2026-05-06 15:09 | -32.45016 | -53.82106 | 1532 ft | 139 kts | 309° |
| 2026-05-06 15:09 | -32.44426 | -53.83028 | 1527 ft | 140 kts | 310° |
| 2026-05-06 15:09 | -32.43844 | -53.83925 | 1524 ft | 137 kts | 311° |
| 2026-05-06 15:09 | -32.43278 | -53.84843 | 1532 ft | 140 kts | 310° |
| 2026-05-06 15:10 | -32.42692 | -53.85789 | 1512 ft | 143 kts | 310° |
| 2026-05-06 15:10 | -32.42109 | -53.86729 | 1519 ft | 140 kts | 310° |
| 2026-05-06 15:10 | -32.41530 | -53.87651 | 1528 ft | 139 kts | 310° |
| 2026-05-06 15:10 | -32.40946 | -53.88560 | 1527 ft | 138 kts | 310° |
| 2026-05-06 15:11 | -32.40363 | -53.89463 | 1512 ft | 139 kts | 310° |
| 2026-05-06 15:11 | -32.39780 | -53.90387 | 1508 ft | 142 kts | 310° |
| 2026-05-06 15:11 | -32.39200 | -53.91315 | 1507 ft | 138 kts | 310° |
| 2026-05-06 15:11 | -32.38632 | -53.92228 | 1515 ft | 138 kts | 309° |
| 2026-05-06 15:12 | -32.38057 | -53.93150 | 1514 ft | 140 kts | 310° |
| 2026-05-06 15:12 | -32.37579 | -53.94177 | 1507 ft | 149 kts | 285° |
| 2026-05-06 15:12 | -32.37463 | -53.95406 | 1505 ft | 151 kts | 277° |
| 2026-05-06 15:12 | -32.37437 | -53.96629 | 1494 ft | 147 kts | 276° |
| 2026-05-06 15:13 | -32.37443 | -53.97824 | 1492 ft | 144 kts | 276° |
| 2026-05-06 15:13 | -32.37439 | -53.99005 | 1503 ft | 148 kts | 276° |
| 2026-05-06 15:13 | -32.37419 | -54.00253 | 1499 ft | 153 kts | 276° |
| 2026-05-06 15:13 | -32.37408 | -54.01509 | 1495 ft | 152 kts | 276° |
| 2026-05-06 15:14 | -32.37396 | -54.02756 | 1498 ft | 152 kts | 276° |
| 2026-05-06 15:14 | -32.37380 | -54.03998 | 1496 ft | 149 kts | 276° |
| 2026-05-06 15:14 | -32.37368 | -54.05216 | 1485 ft | 145 kts | 276° |
| 2026-05-06 15:14 | -32.37372 | -54.06397 | 1485 ft | 143 kts | 276° |
| 2026-05-06 15:15 | -32.37368 | -54.07583 | 1497 ft | 147 kts | 276° |
| 2026-05-06 15:15 | -32.37347 | -54.08778 | 1489 ft | 146 kts | 276° |
| 2026-05-06 15:15 | -32.37323 | -54.09980 | 1483 ft | 146 kts | 277° |
| 2026-05-06 15:15 | -32.37308 | -54.11184 | 1489 ft | 147 kts | 276° |
| 2026-05-06 15:16 | -32.37289 | -54.12392 | 1495 ft | 147 kts | 276° |
| 2026-05-06 15:16 | -32.37270 | -54.13605 | 1484 ft | 146 kts | 276° |
| 2026-05-06 15:16 | -32.37250 | -54.14814 | 1487 ft | 148 kts | 277° |
| 2026-05-06 15:16 | -32.37227 | -54.16035 | 1491 ft | 149 kts | 276° |
| 2026-05-06 15:17 | -32.37201 | -54.17263 | 1493 ft | 149 kts | 276° |
| 2026-05-06 15:17 | -32.37027 | -54.18428 | 1485 ft | 143 kts | 294° |
| 2026-05-06 15:17 | -32.36697 | -54.19551 | 1496 ft | 147 kts | 293° |
| 2026-05-06 15:17 | -32.36368 | -54.20661 | 1401 ft | 134 kts | 294° |
| 2026-05-06 15:18 | -32.36013 | -54.21702 | 991 ft | 134 kts | 301° |
| 2026-05-06 15:18 | -32.35466 | -54.22504 | 846 ft | 116 kts | 316° |
| 2026-05-06 15:18 | -32.34943 | -54.22987 | 718 ft | 84 kts | 355° |
| 2026-05-06 15:18 | -32.34451 | -54.22798 | 529 ft | 75 kts | 40° |
| 2026-05-06 15:19 | -32.34117 | -54.22311 | 383 ft | 76 kts | 57° |
| 2026-05-06 15:19 | -32.33915 | -54.21902 | 354 ft | 24 kts | 62° |
| 2026-05-06 15:19 | -32.33910 | -54.21919 | 354 ft | 13 kts | 237° |
| 2026-05-06 15:19 | -32.33964 | -54.22027 | 360 ft | 15 kts | 237° |
| 2026-05-06 15:20 | -32.34020 | -54.22136 | 363 ft | 16 kts | 241° |
| 2026-05-06 15:20 | -32.33974 | -54.22225 | 362 ft | 14 kts | 331° |
| 2026-05-06 15:20 | -32.33925 | -54.22292 | 365 ft | 10 kts | 237° |
| 2026-05-06 15:20 | -32.33940 | -54.22320 | 367 ft | 0 kts | 238° |